Terminal Aerodrome Forecast
Issued by NWS

Home | Current Version | Previous Version | Text Only | Print | Product List | Glossary On
Versions: 1 2 3 4 5 6 7 8 9 10 11 12 13 14 15 16 17 18 19 20 21 22 23
083
FTUS42 KFFC 031129
TAFPDK
TAF
KPDK 031129Z 0312/0412 32005KT P6SM BKN250
     FM031600 03005KT P6SM BKN120
     FM040100 00000KT P6SM VCSH OVC060
     FM040800 08006KT 6SM -RADZ OVC040=

USA.gov is the U.S. government's official web portal to all federal, state and local government web resources and services.